AirNav   Everest Fuels
 
 901 users online  

TN42 Valley View Assisted Living Heliport
Whitwell, Tennessee, USA

GOING TO WHITWELL?


FAA INFORMATION EFFECTIVE 21 MAY 2020

Location

FAA Identifier: TN42
Lat/Long: 35-12-10.2670N 085-31-09.8750W
35-12.171117N 085-31.164583W
35.2028519,-85.5194097
(estimated)
Elevation: 750 ft. / 229 m (estimated)
Variation: 01W (1985)
From city: 1 mile E of WHITWELL, TN
Time zone: UTC -5 (UTC -6 during Standard Time)
Zip code: 37397

Heliport Operations

Heliport use: Private use, MEDICAL USE
Activation date: 04/1990
Control tower: no
ARTCC: ATLANTA CENTER
FSS: NASHVILLE FLIGHT SERVICE STATION
Attendance: UNATNDD
Segmented circle: no
Lights: FOR PERIMETER LGTS CALL 615-658-2101.

Heliport Communications

WX ASOS at CHA (18 nm SE): 119.85 (423-499-5973)

Nearby radio navigation aids

VOR radial/distance  VOR name  Freq  Var
GQOr308/23.1CHOO CHOO VORTAC115.8001E

 
NDB name  Hdg/Dist  Freq  Var  ID
DAISY279/17.934102WCQN -.-. --.- -.
MARK ANTON244/33.339404WDTE -.. - .

Heliport Services

Runway Information

Helipad H1

Dimensions: 24 x 24 ft. / 7 x 7 m
Surface: concrete
Runway edge lights: PERI
Latitude: 35-12.171117N
Longitude: 085-31.164583W
Elevation: 750.0 ft.
Traffic pattern: leftleft

Heliport Ownership and Management from official FAA records

Ownership: Privately-owned
Owner: VALLEY VIEW OF WHITWELL
101 NORTH MAPLE ST
WHITWELL, TN 37397
Phone 423-658-0100
Manager: DARLENE AUSTIN
101 NORTH MAPLE ST
WHITWELL, TN 37397
Phone 423-658-0100

Additional Remarks

FOR CD CTC ATLANTA ARTCC AT 770-210-7692.

Instrument Procedures

There are no published instrument procedures at TN42.

Some nearby airports with instrument procedures:

KAPT - Marion County Airport-Brown Field (9 nm S)
KCHA - Lovell Field Airport (18 nm SE)
KBGF - Winchester Municipal Airport (27 nm W)
9A5 - Barwick Lafayette Airport (33 nm S)
2A0 - Mark Anton Airport (33 nm NE)
 
Loc | Ops | Rwys | IFR | FBO | Links
Com | Nav | Svcs | Stats | Notes
Area around TN42 (Valley View Assisted Living Heliport)
 
Road maps at: MapQuest Bing Google
 
Aerial photo
No photo
 
Sectional chart

 
Airport distance calculator
Flying to Valley View Assisted Living Heliport? Find the distance to fly.

From to TN42

Sunrise and sunset
Times for 24-May-2020
 Local
(UTC-5)
 Zulu
(UTC)
Morning civil twilight05:0410:04
Sunrise05:3310:33
Sunset19:4500:45
Evening civil twilight20:1401:14

Current date and time
Zulu (UTC)  25-May-2020 01:51:38
Local (UTC-5)  24-May-2020 20:51:38
 
METAR
KCHA 
19nm SE 
250053Z 00000KT 10SM FEW055 FEW150 SCT250 26/20 A3000 RMK AO2 SLP150 T02560200
KBGF 
27nm W 
250135Z AUTO 14004KT 10SM CLR 23/19 A3000 RMK A01
K9A5 
33nm S 
250135Z AUTO 00000KT 10SM CLR 22/19 A3001 RMK AO2 T02170193
K2A0 
33nm NE 
250135Z AUTO 00000KT 10SM CLR 23/20 A3000 RMK A01
KRNC 
34nm NW 
250135Z AUTO 00000KT 10SM CLR 22/19 A3000 RMK A01
KDNN 
35nm SE 
250135Z AUTO 00000KT 10SM CLR 25/20 A3001 RMK AO2
KRZR 
35nm E 
250135Z AUTO 00000KT 10SM CLR 23/23 A3001 RMK A01
KTHA 
37nm W 
250135Z AUTO 00000KT 10SM CLR 23/19 A2999 RMK A01
TAF
KCHA 
19nm SE 
241724Z 2418/2518 VRB04KT P6SM VCSH SCT050 BKN200 FM242000 VRB04KT P6SM VCTS SCT040CB SCT060 FM250000 00000KT P6SM SCT150 FM251600 VRB04KT P6SM SCT045 BKN250
NOTAMs
Click for the latest NOTAMs
NOTAMs are issued by the DoD/FAA and will open in a separate window not controlled by AirNav.

 

 
 

Would you like to see your business listed on this page?

 If your business provides an interesting product or service to pilots, flight crews, aircraft, or users of the Valley View Assisted Living Heliport, you should consider listing it here.  To start the listing process, click on the button below
 
Add a business
 

Other Pages about Valley View Assisted Living Heliport

Update a link
 
Copyright © AirNav, LLC. All rights reserved. Privacy Policy  Contact